createdAt,value
2019-05-19T00:00:19.067Z,14.38
2019-05-19T00:02:51.967Z,15.00
2019-05-19T00:05:21.913Z,17.45
2019-05-19T00:07:51.318Z,17.73
2019-05-19T00:10:20.725Z,21.25
2019-05-19T00:12:50.126Z,19.67
2019-05-19T00:15:19.489Z,18.30
2019-05-19T00:17:51.666Z,18.75
2019-05-19T00:20:24.425Z,18.52
2019-05-19T00:22:53.767Z,17.60
2019-05-19T00:25:23.135Z,18.02
2019-05-19T00:27:52.595Z,17.42
2019-05-19T00:30:23.073Z,16.57
2019-05-19T00:32:52.481Z,17.90
2019-05-19T00:35:21.869Z,17.73
2019-05-19T00:37:51.220Z,17.20
2019-05-19T00:40:20.559Z,16.57
2019-05-19T00:42:51.155Z,16.10
2019-05-19T00:45:20.741Z,15.93
2019-05-19T00:47:50.075Z,16.12
2019-05-19T00:50:20.687Z,15.93
2019-05-19T00:52:50.024Z,18.67
2019-05-19T00:55:19.382Z,20.15
2019-05-19T00:57:51.065Z,20.68
2019-05-19T01:00:21.266Z,18.25
2019-05-19T01:02:50.625Z,17.70
2019-05-19T01:05:20.766Z,15.98
2019-05-19T01:07:50.450Z,16.25
2019-05-19T01:10:19.931Z,15.38
2019-05-19T01:12:49.271Z,14.25
2019-05-19T01:15:19.436Z,14.98
2019-05-19T01:17:48.788Z,14.33
2019-05-19T01:20:19.667Z,14.55
2019-05-19T01:22:49.005Z,13.60
2019-05-19T01:25:18.562Z,14.13
2019-05-19T01:27:47.893Z,13.93
2019-05-19T01:30:19.505Z,13.90
2019-05-19T01:32:48.942Z,14.35
2019-05-19T01:35:18.321Z,13.10
2019-05-19T01:37:47.749Z,13.75
2019-05-19T01:40:18.699Z,14.78
2019-05-19T01:42:48.046Z,14.33
2019-05-19T01:45:17.746Z,14.53
2019-05-19T01:47:47.104Z,14.30
2019-05-19T01:50:18.282Z,13.38
2019-05-19T01:52:47.882Z,13.00
2019-05-19T01:55:17.279Z,12.55
2019-05-19T01:57:49.334Z,12.78
2019-05-19T02:00:19.962Z,12.40
2019-05-19T02:02:50.493Z,13.13
2019-05-19T02:05:19.887Z,13.10
2019-05-19T02:07:49.246Z,12.68
2019-05-19T02:10:18.879Z,11.75
2019-05-19T02:12:48.444Z,12.33
2019-05-19T02:15:18.250Z,13.18
2019-05-19T02:17:47.634Z,12.63
2019-05-19T02:20:31.693Z,12.20
2019-05-19T02:22:48.280Z,12.28
2019-05-19T02:25:21.640Z,12.75
2019-05-19T02:27:50.963Z,13.32
2019-05-19T02:30:21.741Z,13.68
2019-05-19T02:32:51.106Z,12.18
2019-05-19T02:35:20.451Z,12.13
2019-05-19T02:37:49.805Z,12.50
2019-05-19T02:40:19.788Z,12.25
2019-05-19T02:42:51.211Z,13.45
2019-05-19T02:45:20.621Z,12.75
2019-05-19T02:47:51.857Z,12.93
2019-05-19T02:50:22.726Z,12.95
2019-05-19T02:52:53.517Z,13.43
2019-05-19T02:55:25.379Z,14.05
2019-05-19T02:57:56.154Z,12.98
2019-05-19T03:00:40.936Z,12.23
2019-05-19T03:05:39.043Z,12.98
2019-05-19T03:08:08.453Z,13.60
2019-05-19T03:10:37.887Z,14.15
2019-05-19T03:13:07.244Z,14.23
2019-05-19T03:15:36.567Z,13.60
2019-05-19T03:18:05.914Z,14.28
2019-05-19T03:20:35.406Z,13.95
2019-05-19T03:23:04.820Z,13.95
2019-05-19T03:25:34.137Z,14.40
2019-05-19T03:28:04.402Z,14.03
2019-05-19T03:30:35.465Z,14.05
2019-05-19T03:33:06.519Z,13.62
2019-05-19T03:35:35.938Z,13.60
2019-05-19T03:38:05.346Z,13.22
2019-05-19T03:40:35.645Z,13.32
2019-05-19T03:43:04.985Z,13.38
2019-05-19T03:45:34.339Z,14.00
2019-05-19T03:48:03.753Z,13.75
2019-05-19T03:50:33.150Z,13.62
2019-05-19T03:53:02.530Z,13.62
2019-05-19T03:55:31.952Z,13.00
2019-05-19T03:58:01.355Z,12.37
2019-05-19T04:00:30.733Z,12.98
2019-05-19T04:03:00.202Z,13.60
2019-05-19T04:05:29.581Z,13.05
2019-05-19T04:07:58.905Z,12.70
2019-05-19T04:10:28.279Z,12.43
2019-05-19T04:12:57.640Z,12.82
2019-05-19T04:15:26.983Z,12.47
2019-05-19T04:17:56.322Z,11.43
2019-05-19T04:20:25.743Z,12.07
2019-05-19T04:22:55.151Z,13.40
2019-05-19T04:25:24.499Z,11.68
2019-05-19T04:27:53.909Z,12.40
2019-05-19T04:30:23.294Z,13.15
2019-05-19T04:32:52.620Z,12.10
2019-05-19T04:35:21.947Z,12.05
2019-05-19T04:37:51.308Z,12.95
2019-05-19T04:40:20.709Z,12.60
2019-05-19T04:42:50.059Z,12.43
2019-05-19T04:45:19.473Z,13.22
2019-05-19T04:47:48.983Z,12.30
2019-05-19T04:50:18.741Z,12.58
2019-05-19T04:52:57.479Z,12.73
2019-05-19T04:55:26.891Z,12.23
2019-05-19T04:57:56.339Z,13.08
2019-05-19T05:00:27.277Z,12.50
2019-05-19T05:02:56.619Z,11.93
2019-05-19T05:05:26.013Z,17.45
2019-05-19T05:07:56.049Z,15.58
2019-05-19T05:10:25.491Z,13.70
2019-05-19T05:12:54.824Z,13.85
2019-05-19T05:15:24.159Z,12.53
2019-05-19T05:17:53.489Z,12.93
2019-05-19T05:20:22.833Z,12.75
2019-05-19T05:22:55.345Z,13.35
2019-05-19T05:25:24.740Z,13.30
2019-05-19T05:27:54.145Z,12.45
2019-05-19T05:30:23.640Z,13.40
2019-05-19T05:32:53.325Z,13.03
2019-05-19T05:35:24.239Z,12.80
2019-05-19T05:37:53.644Z,12.82
2019-05-19T05:40:23.021Z,13.30
2019-05-19T05:42:53.776Z,12.73
2019-05-19T05:45:23.123Z,12.05
2019-05-19T05:47:52.525Z,12.73
2019-05-19T05:50:21.859Z,12.68
2019-05-19T05:52:51.214Z,12.70
2019-05-19T05:55:20.632Z,12.82
2019-05-19T05:57:49.968Z,12.58
2019-05-19T06:00:19.960Z,12.43
2019-05-19T06:02:49.363Z,13.28
2019-05-19T06:05:18.786Z,13.18
2019-05-19T06:07:48.215Z,12.75
2019-05-19T06:10:18.571Z,12.93
2019-05-19T06:12:48.037Z,13.72
2019-05-19T06:15:17.417Z,12.58
2019-05-19T06:17:46.811Z,11.50
2019-05-19T06:20:16.213Z,12.23
2019-05-19T06:22:55.986Z,12.28
2019-05-19T06:25:16.637Z,12.53
2019-05-19T06:27:45.986Z,12.93
2019-05-19T06:30:15.775Z,13.28
2019-05-19T06:32:49.777Z,12.82
2019-05-19T06:35:19.493Z,12.20
2019-05-19T06:37:48.909Z,12.28
2019-05-19T06:40:18.247Z,11.60
2019-05-19T06:42:48.009Z,12.55
2019-05-19T06:45:17.764Z,11.35
2019-05-19T06:47:48.295Z,12.28
2019-05-19T06:50:17.970Z,11.78
2019-05-19T06:52:47.373Z,11.15
2019-05-19T06:55:17.040Z,12.05
2019-05-19T06:57:46.382Z,11.22
2019-05-19T07:00:17.732Z,11.43
2019-05-19T07:02:47.208Z,11.55
2019-05-19T07:05:17.148Z,10.90
2019-05-19T07:07:46.487Z,11.22
2019-05-19T07:10:15.958Z,11.30
2019-05-19T07:12:45.339Z,11.22
2019-05-19T07:15:14.942Z,10.90
2019-05-19T07:17:44.461Z,11.48
2019-05-19T07:20:14.087Z,13.43
2019-05-19T07:22:43.501Z,10.60
2019-05-19T07:25:12.944Z,9.98
2019-05-19T07:27:42.371Z,9.93
2019-05-19T07:30:11.913Z,9.88
2019-05-19T07:32:41.347Z,9.20
2019-05-19T07:35:12.526Z,9.03
2019-05-19T07:37:41.939Z,9.35
2019-05-19T07:40:11.807Z,9.33
2019-05-19T07:42:41.234Z,8.70
2019-05-19T07:45:10.995Z,9.13
2019-05-19T07:47:40.392Z,8.35
2019-05-19T07:50:09.750Z,7.97
2019-05-19T07:52:39.168Z,8.10
2019-05-19T07:55:08.563Z,7.85
2019-05-19T07:57:37.932Z,7.95
2019-05-19T08:00:10.740Z,7.10
2019-05-19T08:02:40.645Z,7.72
2019-05-19T08:05:10.110Z,7.10
2019-05-19T08:07:39.514Z,7.37
2019-05-19T08:10:09.597Z,7.85
2019-05-19T08:12:38.926Z,7.62
2019-05-19T08:15:08.983Z,6.85
2019-05-19T08:17:38.346Z,6.78
2019-05-19T08:20:09.417Z,7.28
2019-05-19T08:22:39.635Z,7.17
2019-05-19T08:25:09.459Z,6.80
2019-05-19T08:27:40.110Z,6.60
2019-05-19T08:30:10.574Z,7.08
2019-05-19T08:32:39.930Z,7.60
2019-05-19T08:35:09.310Z,7.25
2019-05-19T08:37:38.700Z,7.25
2019-05-19T08:40:08.419Z,7.85
2019-05-19T08:42:37.821Z,7.17
2019-05-19T08:45:08.190Z,8.55
2019-05-19T08:47:37.272Z,7.75
2019-05-19T08:50:07.558Z,7.60
2019-05-19T08:52:37.015Z,7.53
2019-05-19T08:55:08.550Z,7.05
2019-05-19T08:57:37.901Z,6.90
2019-05-19T09:00:10.215Z,7.42
2019-05-19T09:02:39.619Z,7.15
2019-05-19T09:05:10.130Z,7.28
2019-05-19T09:07:39.482Z,7.90
2019-05-19T09:10:09.622Z,6.62
2019-05-19T09:12:39.060Z,6.60
2019-05-19T09:15:08.976Z,6.58
2019-05-19T09:17:38.305Z,7.75
2019-05-19T09:20:07.954Z,6.45
2019-05-19T09:22:37.539Z,6.95
2019-05-19T09:25:07.675Z,6.60
2019-05-19T09:27:37.089Z,6.00
2019-05-19T09:30:09.406Z,5.83
2019-05-19T09:32:38.811Z,5.25
2019-05-19T09:35:08.959Z,5.10
2019-05-19T09:37:38.397Z,5.22
2019-05-19T09:40:08.398Z,5.10
2019-05-19T09:42:37.757Z,4.22
2019-05-19T09:45:08.789Z,4.10
2019-05-19T09:47:38.207Z,4.58
2019-05-19T09:50:07.959Z,4.62
2019-05-19T09:52:37.455Z,4.58
2019-05-19T09:55:07.600Z,5.65
2019-05-19T09:57:37.800Z,5.33
2019-05-19T10:00:10.414Z,4.90
2019-05-19T10:02:40.111Z,5.70
2019-05-19T10:05:09.979Z,5.28
2019-05-19T10:07:41.102Z,5.87
2019-05-19T10:10:16.625Z,6.00
2019-05-19T10:12:46.596Z,5.53
2019-05-19T10:15:16.524Z,5.87
2019-05-19T10:17:48.492Z,5.75
2019-05-19T10:20:18.056Z,5.80
2019-05-19T10:22:47.703Z,5.45
2019-05-19T10:25:22.634Z,5.92
2019-05-19T10:27:49.024Z,5.35
2019-05-19T10:30:19.375Z,5.58
2019-05-19T10:32:49.774Z,5.47
2019-05-19T10:35:20.279Z,5.42
2019-05-19T10:37:50.593Z,6.10
2019-05-19T10:40:21.810Z,6.10
2019-05-19T10:42:51.749Z,5.53
2019-05-19T10:45:21.893Z,5.50
2019-05-19T10:47:51.351Z,5.65
2019-05-19T10:50:20.822Z,5.97
2019-05-19T10:52:50.155Z,6.00
2019-05-19T10:55:19.567Z,7.95
2019-05-19T10:57:48.930Z,6.12
2019-05-19T11:00:18.576Z,6.90
2019-05-19T11:02:47.961Z,6.30
2019-05-19T11:05:17.404Z,6.10
2019-05-19T11:07:46.785Z,6.00
2019-05-19T11:10:16.469Z,6.40
2019-05-19T11:12:47.070Z,6.22
2019-05-19T11:15:17.103Z,5.95
2019-05-19T11:17:46.445Z,6.42
2019-05-19T11:20:17.100Z,5.67
2019-05-19T11:22:47.410Z,6.65
2019-05-19T11:25:16.825Z,6.35
2019-05-19T11:27:46.283Z,6.30
2019-05-19T11:30:15.670Z,6.03
2019-05-19T11:32:45.183Z,6.08
2019-05-19T11:35:16.058Z,6.03
2019-05-19T11:37:45.377Z,6.33
2019-05-19T11:40:14.882Z,7.30
2019-05-19T11:42:46.836Z,6.28
2019-05-19T11:45:15.375Z,6.22
2019-05-19T11:47:44.964Z,6.42
2019-05-19T11:50:14.503Z,6.12
2019-05-19T11:52:43.908Z,6.20
2019-05-19T11:55:14.431Z,6.70
2019-05-19T11:57:43.829Z,6.10
2019-05-19T12:00:15.041Z,6.58
2019-05-19T12:02:44.497Z,6.37
2019-05-19T12:05:15.179Z,7.03
2019-05-19T12:07:44.586Z,6.80
2019-05-19T12:10:14.226Z,6.92
2019-05-19T12:12:50.667Z,6.83
2019-05-19T12:15:20.095Z,7.25
2019-05-19T12:17:50.951Z,7.30
2019-05-19T12:20:21.275Z,7.00
2019-05-19T12:22:50.722Z,8.55
2019-05-19T12:25:20.695Z,6.83
2019-05-19T12:27:50.098Z,7.30
2019-05-19T12:30:21.377Z,7.92
2019-05-19T12:32:50.806Z,7.90
2019-05-19T12:35:20.294Z,7.25
2019-05-19T12:37:49.706Z,7.72
2019-05-19T12:40:22.473Z,7.85
2019-05-19T12:42:50.295Z,7.30
2019-05-19T12:45:23.191Z,7.42
2019-05-19T12:47:52.906Z,7.53
2019-05-19T12:50:23.742Z,7.00
2019-05-19T12:52:53.191Z,6.95
2019-05-19T12:55:22.621Z,15.43
2019-05-19T12:57:53.227Z,8.20
2019-05-19T13:00:22.999Z,7.12
2019-05-19T13:02:52.701Z,7.55
2019-05-19T13:05:22.786Z,7.03
2019-05-19T13:07:54.471Z,12.50
2019-05-19T13:10:23.941Z,11.80
2019-05-19T13:12:53.351Z,13.72
2019-05-19T13:15:24.324Z,17.30
2019-05-19T13:17:53.808Z,13.03
2019-05-19T13:20:23.278Z,10.80
2019-05-19T13:22:52.635Z,9.50
2019-05-19T13:25:22.027Z,11.00
2019-05-19T13:27:51.886Z,10.15
2019-05-19T13:30:21.291Z,7.40
2019-05-19T13:32:50.708Z,6.42
2019-05-19T13:35:20.109Z,5.72
2019-05-19T13:37:49.494Z,6.90
2019-05-19T13:40:18.920Z,6.30
2019-05-19T13:42:49.772Z,6.92
2019-05-19T13:45:22.152Z,8.33
2019-05-19T13:47:51.487Z,6.95
2019-05-19T13:50:20.834Z,8.08
2019-05-19T13:52:51.322Z,8.20
2019-05-19T13:55:22.002Z,9.30
2019-05-19T13:57:51.393Z,8.90
2019-05-19T14:00:21.204Z,11.48
2019-05-19T14:02:50.642Z,8.88
2019-05-19T14:05:20.071Z,8.83
2019-05-19T14:07:49.462Z,8.33
2019-05-19T14:10:18.877Z,7.55
2019-05-19T14:12:48.340Z,8.23
2019-05-19T14:15:20.666Z,8.13
2019-05-19T14:17:50.059Z,19.37
2019-05-19T14:20:19.431Z,9.08
2019-05-19T14:22:48.856Z,8.90
2019-05-19T14:25:18.235Z,7.95
2019-05-19T14:27:47.576Z,8.00
2019-05-19T14:30:21.252Z,8.20
2019-05-19T14:32:51.211Z,7.33
2019-05-19T14:35:22.096Z,7.47
2019-05-19T14:37:51.495Z,6.90
2019-05-19T14:40:22.260Z,6.70
2019-05-19T14:42:53.370Z,7.20
2019-05-19T14:45:24.145Z,7.00
2019-05-19T14:47:54.239Z,6.67
2019-05-19T14:50:24.444Z,6.50
2019-05-19T14:52:54.287Z,7.00
2019-05-19T14:55:23.816Z,7.87
2019-05-19T14:57:53.247Z,6.50
2019-05-19T15:00:22.690Z,7.03
2019-05-19T15:02:52.102Z,7.20
2019-05-19T15:05:21.559Z,10.28
2019-05-19T15:07:50.922Z,7.03
2019-05-19T15:10:21.298Z,9.13
2019-05-19T15:12:57.246Z,11.93
2019-05-19T15:15:25.929Z,11.60
2019-05-19T15:17:56.526Z,9.63
2019-05-19T15:20:27.577Z,8.35
2019-05-19T15:22:58.563Z,9.08
2019-05-19T15:25:31.025Z,7.97
2019-05-19T15:28:04.550Z,7.80
2019-05-19T15:30:35.075Z,7.53
2019-05-19T15:33:06.196Z,7.85
2019-05-19T15:35:35.806Z,9.25
2019-05-19T15:38:08.663Z,7.42
2019-05-19T15:40:38.138Z,7.55
2019-05-19T15:43:10.304Z,7.62
2019-05-19T15:45:41.162Z,7.97
2019-05-19T15:48:10.580Z,8.05
2019-05-19T15:50:43.281Z,8.00
2019-05-19T15:53:14.237Z,7.65
2019-05-19T15:55:43.958Z,8.10
2019-05-19T15:58:16.834Z,7.90
2019-05-19T16:00:49.652Z,8.50
2019-05-19T16:03:19.446Z,8.28
2019-05-19T16:05:50.298Z,8.30
2019-05-19T16:08:20.016Z,7.97
2019-05-19T16:10:49.575Z,8.00
2019-05-19T16:13:21.920Z,8.88
2019-05-19T16:15:50.758Z,8.60
2019-05-19T16:18:20.904Z,8.13
2019-05-19T16:20:55.915Z,8.55
2019-05-19T16:23:25.786Z,8.48
2019-05-19T16:25:55.186Z,8.60
2019-05-19T16:28:30.889Z,7.72
2019-05-19T16:30:55.860Z,7.97
2019-05-19T16:33:26.475Z,8.20
2019-05-19T16:35:56.080Z,8.20
2019-05-19T16:38:25.590Z,7.92
2019-05-19T16:40:55.224Z,8.20
2019-05-19T16:43:28.859Z,8.53
2019-05-19T16:45:58.205Z,8.60
2019-05-19T16:48:35.836Z,9.18
2019-05-19T16:51:10.920Z,9.30
2019-05-19T16:53:40.457Z,9.55
2019-05-19T16:56:10.018Z,9.78
2019-05-19T16:58:45.405Z,9.70
2019-05-19T17:01:10.606Z,9.85
2019-05-19T17:03:41.977Z,10.65
2019-05-19T17:06:16.971Z,9.98
2019-05-19T17:08:46.767Z,10.20
2019-05-19T17:11:18.247Z,10.32
2019-05-19T17:13:47.988Z,11.12
2019-05-19T17:16:17.419Z,11.20
2019-05-19T17:18:46.890Z,11.10
2019-05-19T17:21:16.290Z,11.15
2019-05-19T17:23:45.836Z,11.48
2019-05-19T17:26:17.012Z,11.95
2019-05-19T17:28:59.775Z,11.53
2019-05-19T17:31:18.175Z,11.85
2019-05-19T17:33:48.260Z,12.60
2019-05-19T17:36:20.033Z,12.20
2019-05-19T17:38:49.459Z,12.18
2019-05-19T17:41:19.233Z,14.63
2019-05-19T17:43:48.888Z,13.65
2019-05-19T17:46:20.023Z,13.58
2019-05-19T17:48:49.830Z,12.55
2019-05-19T17:51:19.996Z,12.73
2019-05-19T17:53:51.602Z,13.50
2019-05-19T17:56:22.992Z,13.15
2019-05-19T17:58:54.294Z,13.15
2019-05-19T18:01:26.684Z,13.13
2019-05-19T18:03:56.490Z,13.62
2019-05-19T18:06:28.914Z,12.50
2019-05-19T18:09:00.251Z,13.03
2019-05-19T18:11:32.659Z,12.85
2019-05-19T18:14:02.633Z,13.53
2019-05-19T18:16:36.889Z,15.03
2019-05-19T18:19:08.333Z,12.78
2019-05-19T18:21:39.686Z,12.25
2019-05-19T18:24:14.924Z,13.32
2019-05-19T18:26:47.476Z,13.18
2019-05-19T18:29:30.439Z,13.03
2019-05-19T18:31:49.738Z,12.40
2019-05-19T18:34:20.148Z,13.05
2019-05-19T18:36:55.403Z,12.15
2019-05-19T18:39:34.226Z,12.28
2019-05-19T18:42:40.493Z,11.80
2019-05-19T18:44:59.191Z,11.50
2019-05-19T18:47:31.054Z,10.50
2019-05-19T18:50:06.672Z,9.75
2019-05-19T18:55:08.373Z,9.25
2019-05-19T18:57:38.839Z,9.90
2019-05-19T19:00:08.733Z,8.93
2019-05-19T19:02:38.482Z,9.08
2019-05-19T19:05:10.419Z,9.38
2019-05-19T19:07:53.467Z,8.48
2019-05-19T19:10:29.465Z,9.10
2019-05-19T19:12:57.452Z,8.83
2019-05-19T19:15:27.250Z,8.65
2019-05-19T19:17:59.564Z,8.30
2019-05-19T19:20:29.618Z,8.60
2019-05-19T19:22:59.802Z,9.65
2019-05-19T19:25:29.959Z,8.80
2019-05-19T19:27:59.965Z,8.75
2019-05-19T19:30:30.487Z,8.95
2019-05-19T19:33:04.484Z,8.20
2019-05-19T19:35:39.383Z,7.87
2019-05-19T19:38:05.448Z,8.65
2019-05-19T19:40:35.440Z,8.70
2019-05-19T19:43:10.333Z,8.88
2019-05-19T19:45:40.625Z,9.60
2019-05-19T19:48:10.786Z,10.80
2019-05-19T19:50:42.029Z,9.08
2019-05-19T19:53:11.397Z,9.43
2019-05-19T19:55:40.821Z,10.08
2019-05-19T19:58:12.161Z,10.05
2019-05-19T20:00:43.977Z,9.78
2019-05-19T20:03:15.211Z,9.88
2019-05-19T20:05:47.810Z,10.10
2019-05-19T20:08:18.836Z,10.15
2019-05-19T20:10:48.248Z,10.48
2019-05-19T20:13:17.958Z,9.73
2019-05-19T20:15:48.730Z,10.08
2019-05-19T20:18:20.986Z,10.05
2019-05-19T20:23:25.395Z,10.75
2019-05-19T20:25:54.866Z,10.70
2019-05-19T20:28:28.220Z,10.60
2019-05-19T20:30:58.307Z,10.95
2019-05-19T20:33:31.712Z,11.90
2019-05-19T20:36:01.720Z,11.38
2019-05-19T20:38:31.123Z,11.38
2019-05-19T20:41:03.324Z,11.35
2019-05-19T20:43:34.285Z,13.03
2019-05-19T20:46:04.441Z,12.23
2019-05-19T20:48:33.789Z,12.00
2019-05-19T20:51:04.904Z,11.75
2019-05-19T20:53:34.531Z,12.53
2019-05-19T20:56:05.575Z,12.40
2019-05-19T20:58:35.066Z,12.13
2019-05-19T21:01:04.577Z,12.37
2019-05-19T21:03:33.994Z,12.73
2019-05-19T21:06:03.334Z,13.03
2019-05-19T21:08:34.356Z,13.00
2019-05-19T21:11:04.787Z,13.40
2019-05-19T21:13:34.203Z,15.60
2019-05-19T21:16:05.846Z,13.80
2019-05-19T21:18:35.244Z,13.40
2019-05-19T21:21:04.708Z,14.63
2019-05-19T21:23:34.124Z,14.65
2019-05-19T21:26:05.047Z,14.13
2019-05-19T21:28:34.425Z,13.53
2019-05-19T21:31:06.127Z,13.15
2019-05-19T21:33:34.829Z,13.32
2019-05-19T21:36:04.196Z,14.80
2019-05-19T21:38:33.629Z,14.50
2019-05-19T21:41:03.089Z,14.45
2019-05-19T21:43:32.499Z,15.15
2019-05-19T21:46:06.379Z,14.15
2019-05-19T21:48:35.008Z,13.75
2019-05-19T21:51:04.419Z,15.13
2019-05-19T21:53:34.431Z,14.23
2019-05-19T21:56:03.795Z,14.80
2019-05-19T21:58:33.239Z,14.00
2019-05-19T22:01:02.592Z,16.17
2019-05-19T22:03:32.143Z,14.63
2019-05-19T22:06:01.494Z,14.55
2019-05-19T22:08:30.966Z,15.85
2019-05-19T22:11:04.502Z,15.53
2019-05-19T22:13:33.045Z,13.98
2019-05-19T22:16:12.258Z,15.83
2019-05-19T22:18:33.543Z,15.43
2019-05-19T22:21:03.051Z,15.72
2019-05-19T22:23:32.636Z,15.80
2019-05-19T22:26:02.668Z,15.98
2019-05-19T22:28:32.383Z,15.93
2019-05-19T22:31:01.753Z,15.40
2019-05-19T22:33:31.204Z,14.73
2019-05-19T22:36:00.953Z,15.68
2019-05-19T22:38:30.372Z,16.20
2019-05-19T22:40:59.726Z,16.97
2019-05-19T22:43:30.054Z,17.32
2019-05-19T22:45:59.418Z,17.05
2019-05-19T22:48:28.739Z,16.60
2019-05-19T22:50:58.176Z,16.77
2019-05-19T22:53:27.500Z,17.07
2019-05-19T22:55:56.844Z,18.00
2019-05-19T22:58:26.204Z,16.80
2019-05-19T23:00:57.204Z,17.15
2019-05-19T23:03:26.902Z,17.40
2019-05-19T23:05:58.150Z,17.90
2019-05-19T23:08:27.930Z,17.65
2019-05-19T23:10:57.326Z,17.75
2019-05-19T23:13:26.688Z,18.00
2019-05-19T23:15:56.103Z,17.52
2019-05-19T23:18:25.545Z,17.57
2019-05-19T23:20:55.006Z,18.45
2019-05-19T23:23:24.376Z,18.40
2019-05-19T23:25:53.849Z,18.67
2019-05-19T23:28:23.227Z,18.30
2019-05-19T23:30:52.578Z,18.87
2019-05-19T23:33:21.976Z,19.05
2019-05-19T23:35:51.426Z,19.62
2019-05-19T23:38:20.755Z,18.85
2019-05-19T23:40:50.173Z,19.48
2019-05-19T23:43:19.553Z,19.37
2019-05-19T23:45:48.970Z,21.27
2019-05-19T23:48:18.342Z,19.25
2019-05-19T23:50:48.192Z,21.50
2019-05-19T23:53:17.616Z,20.95
2019-05-19T23:55:47.037Z,20.02
2019-05-19T23:58:16.474Z,19.17
